Flugplatz Westerland Sylt

Bericht für EDXW

vom 23.08. um 12:20 UTC

Wind 13 kt aus 240°

Sichtweite 10 km oder mehr

gering bewölkt in 900 ft

Temperatur 21.0°C

Taupunkt 19.0°C

Luftfeuchtigkeit 88%

Luftdruck 1025 hPa

EDXW 231220Z 24013KT 9999 FEW009 21/19 Q1025

Prognose für EDXW

vom 23.08. um 00:00 UTC

Zwischen 00:00 UTC und 00:00 UTC

Wind 11 kt aus 250°

Sichtweite 10 km oder mehr

gering bewölkt in 1200 ft


Zwischen 00:00 UTC und 00:00 UTC zeitweise mit einer Wahrscheinlichkeit von 30%

aufgebrochene Bewölkung in 700 ft


Zwischen 00:00 und 00:00 UTC übergehend zu

Wind 4 kt aus 270°

Sichtweite 10 km oder mehr

gering bewölkt in 1200 ft

TAF EDXW 231100Z 2312/2321 25011KT 9999 FEW012 PROB30 TEMPO 2312/2321 BKN007 BECMG 2315/2317 27004KT
Impressum